Time;durP1;ratioP1;P1;durP2;ratioP2;P2;SDS_P1;SDS_P2;PMS_P1;PMS_P2;Temp;Humidity;BMP_temperature;BMP_pressure;BME280_temperature;BME280_humidity;BME280_pressure;Samples;Min_cycle;Max_cycle;Signal;HPM_P1;HPM_P2
2022/11/19 00:02:02;;;;;;;35.80;18.63;;;0.60;99.90;;;;;;5056894;28;20168;-79
2022/11/19 00:04:28;;;;;;;38.53;19.52;;;0.70;99.90;;;;;;5074473;28;20024;-79
2022/11/19 00:06:54;;;;;;;36.42;19.27;;;0.70;99.90;;;;;;5073241;28;20028;-79
2022/11/19 00:09:20;;;;;;;39.38;21.02;;;0.60;99.90;;;;;;5074133;28;20082;-79
2022/11/19 00:14:29;;;;;;;36.75;18.98;;;0.60;99.90;;;;;;5059219;28;20117;-79
2022/11/19 00:16:55;;;;;;;34.08;17.98;;;0.50;99.90;;;;;;5074132;28;20610;-79
2022/11/19 00:19:21;;;;;;;38.20;19.42;;;0.50;99.90;;;;;;5057166;28;20381;-79
2022/11/19 00:21:48;;;;;;;32.92;17.65;;;0.50;99.90;;;;;;5050237;28;20032;-78
2022/11/19 00:24:14;;;;;;;31.73;17.73;;;0.50;99.90;;;;;;5074038;28;20036;-78
2022/11/19 00:26:40;;;;;;;38.45;18.48;;;0.50;99.90;;;;;;5073105;28;20093;-79
2022/11/19 00:29:06;;;;;;;34.67;18.88;;;0.50;99.90;;;;;;5056889;28;20034;-79
2022/11/19 00:31:32;;;;;;;37.70;19.02;;;0.50;99.90;;;;;;5084788;28;20083;-79
2022/11/19 00:33:58;;;;;;;35.67;17.63;;;0.50;99.90;;;;;;5059896;28;20644;-80
2022/11/19 00:36:24;;;;;;;35.00;17.40;;;0.50;99.90;;;;;;5092197;28;20042;-79
2022/11/19 00:38:50;;;;;;;35.38;18.92;;;0.50;99.90;;;;;;5076889;28;20036;-80
2022/11/19 00:41:15;;;;;;;31.95;17.08;;;0.60;99.90;;;;;;5083782;28;20111;-79
2022/11/19 00:43:47;;;;;;;33.45;18.08;;;0.60;99.90;;;;;;5081025;28;20407;-79
2022/11/19 00:46:21;;;;;;;35.35;18.27;;;0.60;99.90;;;;;;5061911;28;20032;-80
2022/11/19 00:48:49;;;;;;;37.08;18.20;;;0.60;99.90;;;;;;5089869;28;20020;-79
2022/11/19 00:51:15;;;;;;;34.17;18.23;;;0.60;99.90;;;;;;5071961;28;20028;-80
2022/11/19 00:53:41;;;;;;;34.40;18.02;;;0.60;99.90;;;;;;5086841;28;20589;-80
2022/11/19 00:56:11;;;;;;;35.03;18.13;;;0.60;99.90;;;;;;5084657;28;20039;-78
2022/11/19 00:58:37;;;;;;;33.97;17.60;;;0.60;99.90;;;;;;5087888;28;20031;-79
2022/11/19 01:01:04;;;;;;;31.75;17.08;;;0.60;99.90;;;;;;5072137;28;20042;-79
2022/11/19 01:03:30;;;;;;;36.78;19.20;;;0.60;99.90;;;;;;5093970;28;20043;-79
2022/11/19 01:05:56;;;;;;;35.22;18.63;;;0.60;99.90;;;;;;5091996;28;20027;-79
2022/11/19 01:08:22;;;;;;;35.75;18.05;;;0.60;99.90;;;;;;5069271;28;20046;-79
2022/11/19 01:10:48;;;;;;;38.13;18.42;;;0.60;99.90;;;;;;5090652;28;20103;-78
2022/11/19 01:15:59;;;;;;;37.47;19.10;;;0.60;99.90;;;;;;5095722;28;20016;-79
2022/11/19 01:18:26;;;;;;;36.97;19.05;;;0.50;99.90;;;;;;5073954;28;20040;-79
2022/11/19 01:20:52;;;;;;;35.22;18.00;;;0.50;99.90;;;;;;5093488;28;20356;-79
2022/11/19 01:23:18;;;;;;;36.00;17.42;;;0.50;99.90;;;;;;5105179;28;20031;-79
2022/11/19 01:25:44;;;;;;;34.13;18.15;;;0.50;99.90;;;;;;5111588;28;20027;-79
2022/11/19 01:28:09;;;;;;;34.65;18.20;;;0.40;99.90;;;;;;5082046;28;20032;-79
2022/11/19 01:30:39;;;;;;;33.63;18.02;;;0.40;99.90;;;;;;5108069;28;20506;-80
2022/11/19 01:33:05;;;;;;;35.38;17.92;;;0.40;99.90;;;;;;5088215;28;20039;-78
2022/11/19 01:35:31;;;;;;;35.97;18.45;;;0.50;99.90;;;;;;5087845;28;20032;-79
2022/11/19 01:37:59;;;;;;;34.60;18.33;;;0.50;99.90;;;;;;5087313;28;20028;-78
2022/11/19 01:40:26;;;;;;;35.03;18.23;;;0.50;99.90;;;;;;5087154;28;20039;-78
2022/11/19 01:42:55;;;;;;;36.55;18.80;;;0.40;99.90;;;;;;5094151;28;20050;-79
2022/11/19 01:45:35;;;;;;;37.75;19.08;;;0.40;99.90;;;;;;5073634;28;20622;-79
2022/11/19 01:48:25;;;;;;;35.10;17.88;;;0.40;99.90;;;;;;5107235;28;20016;-79
2022/11/19 01:51:07;;;;;;;36.20;18.60;;;0.40;99.90;;;;;;5105778;28;20079;-78
2022/11/19 01:53:34;;;;;;;36.30;19.25;;;0.40;99.90;;;;;;5085331;28;20035;-78
2022/11/19 01:56:03;;;;;;;37.97;19.55;;;0.30;99.90;;;;;;5059786;28;20036;-79
2022/11/19 01:58:46;;;;;;;38.28;18.88;;;0.40;99.90;;;;;;5080760;28;20476;-78
2022/11/19 02:01:13;;;;;;;33.30;17.75;;;0.40;99.90;;;;;;5089889;28;20087;-79
2022/11/19 02:03:39;;;;;;;37.10;18.33;;;0.40;99.90;;;;;;5054838;28;20054;-78
2022/11/19 02:06:05;;;;;;;36.33;18.05;;;0.40;99.90;;;;;;5094034;28;20040;-78
2022/11/19 02:08:43;;;;;;;34.17;17.10;;;0.40;99.90;;;;;;5064805;28;20120;-78
2022/11/19 02:11:47;;;;;;;35.03;17.67;;;0.40;99.90;;;;;;5099757;28;20028;-78
2022/11/19 02:14:18;;;;;;;33.13;17.13;;;0.40;99.90;;;;;;5079210;28;20035;-79
2022/11/19 02:16:55;;;;;;;35.42;17.55;;;0.40;99.90;;;;;;5093523;28;20034;-79
2022/11/19 02:19:51;;;;;;;32.97;16.73;;;0.40;99.90;;;;;;5090641;28;20100;-79
2022/11/19 02:22:42;;;;;;;35.10;17.35;;;0.30;99.90;;;;;;5103375;28;20023;-79
2022/11/19 02:25:18;;;;;;;36.13;17.88;;;0.30;99.90;;;;;;5089853;28;20136;-78
2022/11/19 02:28:13;;;;;;;36.65;17.23;;;0.30;99.90;;;;;;5094092;28;20117;-79
2022/11/19 02:30:48;;;;;;;32.45;16.90;;;0.30;99.90;;;;;;5085015;28;20040;-79
2022/11/19 02:33:35;;;;;;;34.03;17.17;;;0.30;99.90;;;;;;5104360;28;20034;-79
2022/11/19 02:36:17;;;;;;;35.38;17.08;;;0.20;99.90;;;;;;5093543;28;20532;-78
2022/11/19 02:39:02;;;;;;;36.22;16.90;;;0.20;99.90;;;;;;5091085;28;20059;-79
2022/11/19 02:41:39;;;;;;;33.85;17.27;;;0.20;99.90;;;;;;5091632;28;20047;-78
2022/11/19 02:47:12;;;;;;;34.67;17.23;;;0.20;99.90;;;;;;5107956;28;20062;-79
2022/11/19 02:49:43;;;;;;;31.30;15.60;;;0.30;99.90;;;;;;5093254;28;20032;-79
2022/11/19 02:52:11;;;;;;;35.20;17.95;;;0.30;99.90;;;;;;5079830;28;20024;-78
2022/11/19 02:54:37;;;;;;;31.92;16.45;;;0.20;99.90;;;;;;5088000;28;20043;-79
2022/11/19 02:57:03;;;;;;;30.83;15.95;;;0.20;99.90;;;;;;5108858;28;20023;-79
2022/11/19 03:05:11;;;;;;;33.10;16.83;;;0.20;99.90;;;;;;5094846;28;20028;-78
2022/11/19 03:07:37;;;;;;;33.72;16.65;;;0.20;99.90;;;;;;5078543;28;20103;-79
2022/11/19 03:10:07;;;;;;;31.52;16.00;;;0.20;99.90;;;;;;5074547;28;20194;-79
2022/11/19 03:12:42;;;;;;;34.22;16.80;;;0.20;99.90;;;;;;5086211;28;20020;-79
2022/11/19 03:18:04;;;;;;;36.45;17.02;;;0.20;99.90;;;;;;5103258;28;20089;-78
2022/11/19 03:20:39;;;;;;;39.08;17.60;;;0.20;99.90;;;;;;5095855;28;20024;-80
2022/11/19 03:23:21;;;;;;;33.95;17.35;;;0.20;99.90;;;;;;5104905;28;20046;-81
2022/11/19 03:26:02;;;;;;;37.90;17.50;;;0.20;99.90;;;;;;5104026;28;20031;-80
2022/11/19 03:28:33;;;;;;;34.97;17.30;;;0.20;99.90;;;;;;5112960;28;20028;-80
2022/11/19 03:31:01;;;;;;;36.28;17.67;;;0.20;99.90;;;;;;5116058;28;20032;-80
2022/11/19 03:33:49;;;;;;;37.85;16.38;;;0.20;99.90;;;;;;5100962;28;20040;-81
2022/11/19 03:36:31;;;;;;;34.58;16.42;;;0.20;99.90;;;;;;5094073;28;20035;-80
2022/11/19 03:39:02;;;;;;;37.25;17.40;;;0.20;99.90;;;;;;5078444;28;20085;-80
2022/11/19 03:41:30;;;;;;;35.67;17.33;;;0.20;99.90;;;;;;5088361;28;20046;-80
2022/11/19 03:44:02;;;;;;;33.20;15.63;;;0.20;99.90;;;;;;5085140;28;20032;-79
2022/11/19 03:46:30;;;;;;;37.15;16.80;;;0.20;99.90;;;;;;5072302;28;20036;-81
2022/11/19 03:48:57;;;;;;;30.45;15.52;;;0.20;99.90;;;;;;5110922;28;20542;-80
2022/11/19 03:51:35;;;;;;;33.42;16.15;;;0.20;99.90;;;;;;5072777;27;20510;-81
2022/11/19 03:54:01;;;;;;;37.08;17.25;;;0.20;99.90;;;;;;5115550;28;20055;-80
2022/11/19 03:56:28;;;;;;;33.00;16.35;;;0.30;99.90;;;;;;5082055;28;20064;-81
2022/11/19 03:58:53;;;;;;;34.83;17.02;;;0.20;99.90;;;;;;5096772;27;20125;-80
2022/11/19 04:01:20;;;;;;;37.83;18.20;;;0.30;99.90;;;;;;5075990;28;20056;-80
2022/11/19 04:04:34;;;;;;;36.72;18.23;;;0.30;99.90;;;;;;5094584;28;20714;-80
2022/11/19 04:06:31;;;;;;;;;;;0.30;99.90;;;;;;5054798;28;20104;-80
2022/11/19 04:08:57;;;;;;;38.47;16.50;;;0.20;99.90;;;;;;5106017;28;19915;-80
2022/11/19 04:11:22;;;;;;;39.30;17.35;;;0.20;99.90;;;;;;5071629;28;20404;-80
2022/11/19 04:13:48;;;;;;;36.15;16.90;;;0.20;99.90;;;;;;5087718;28;20038;-80
2022/11/19 04:16:14;;;;;;;35.33;17.73;;;0.20;99.90;;;;;;5104915;28;20049;-80
2022/11/19 04:18:40;;;;;;;37.40;18.05;;;0.20;99.90;;;;;;5094912;28;20035;-81
2022/11/19 04:21:06;;;;;;;35.38;17.25;;;0.20;99.90;;;;;;5077696;28;20479;-81
2022/11/19 04:23:31;;;;;;;35.97;15.98;;;0.10;99.90;;;;;;5055004;28;20039;-80
2022/11/19 04:25:57;;;;;;;36.97;17.73;;;0.20;99.90;;;;;;5081330;28;20169;-81
2022/11/19 04:28:26;;;;;;;37.10;17.23;;;0.10;99.90;;;;;;5095235;28;20506;-80
2022/11/19 04:30:51;;;;;;;33.97;15.65;;;0.20;99.90;;;;;;5060791;28;20076;-81
2022/11/19 04:33:17;;;;;;;34.08;17.23;;;0.10;99.90;;;;;;5078718;28;20044;-80
2022/11/19 04:35:44;;;;;;;34.88;16.52;;;0.10;99.90;;;;;;5075851;28;20056;-80
2022/11/19 04:38:10;;;;;;;36.53;16.70;;;0.20;99.90;;;;;;5065077;28;20036;-79
2022/11/19 04:40:36;;;;;;;33.60;16.73;;;0.10;99.90;;;;;;5082108;28;20027;-79
2022/11/19 04:43:01;;;;;;;34.70;17.13;;;0.10;99.90;;;;;;5115710;28;20019;-78
2022/11/19 04:45:27;;;;;;;37.47;17.08;;;0.10;99.90;;;;;;5094668;28;20036;-78
2022/11/19 04:47:53;;;;;;;36.17;17.88;;;0.00;99.90;;;;;;5095052;28;20088;-79
2022/11/19 04:50:19;;;;;;;34.22;15.52;;;0.10;99.90;;;;;;5061249;28;20030;-78
2022/11/19 04:52:44;;;;;;;34.70;16.02;;;0.00;99.90;;;;;;5095323;28;20520;-78
2022/11/19 04:55:10;;;;;;;34.35;16.00;;;0.10;99.90;;;;;;5112898;28;20039;-79
2022/11/19 04:57:36;;;;;;;31.33;14.93;;;0.10;99.90;;;;;;5069772;28;20034;-79
2022/11/19 05:00:03;;;;;;;36.08;16.60;;;0.10;99.90;;;;;;5073689;28;20114;-79
2022/11/19 05:02:28;;;;;;;34.83;16.02;;;0.10;99.90;;;;;;5114729;27;20118;-80
2022/11/19 05:04:54;;;;;;;33.75;15.70;;;0.10;99.90;;;;;;5090215;28;20070;-77
2022/11/19 05:07:20;;;;;;;35.33;15.55;;;0.20;99.90;;;;;;5068634;27;20095;-79
2022/11/19 05:09:46;;;;;;;30.83;14.93;;;0.20;99.90;;;;;;5108812;28;20077;-79
2022/11/19 05:12:11;;;;;;;33.35;16.85;;;0.20;99.90;;;;;;5075375;28;20032;-78
2022/11/19 05:14:38;;;;;;;33.90;15.30;;;0.20;99.90;;;;;;5059531;28;20632;-79
2022/11/19 05:17:04;;;;;;;33.40;15.85;;;0.20;99.90;;;;;;5078895;28;20087;-79
2022/11/19 05:19:29;;;;;;;30.65;16.10;;;0.20;99.90;;;;;;5091515;28;20703;-79
2022/11/19 05:21:55;;;;;;;33.28;15.20;;;0.20;99.90;;;;;;5080048;28;20047;-80
2022/11/19 05:24:21;;;;;;;30.55;14.35;;;0.10;99.90;;;;;;5072807;28;20040;-79
2022/11/19 05:26:47;;;;;;;35.28;15.43;;;0.10;99.90;;;;;;5085125;28;20093;-79
2022/11/19 05:29:12;;;;;;;31.70;15.35;;;0.10;99.90;;;;;;5079593;28;20498;-81
2022/11/19 05:31:38;;;;;;;33.28;16.08;;;0.10;99.90;;;;;;5083491;28;20454;-80
2022/11/19 05:34:04;;;;;;;35.70;16.67;;;0.10;99.90;;;;;;5101506;28;20042;-80
2022/11/19 05:36:29;;;;;;;32.67;14.82;;;0.10;99.90;;;;;;5048691;28;20439;-79
2022/11/19 05:38:55;;;;;;;32.05;15.75;;;0.10;99.90;;;;;;5085950;28;20092;-81
2022/11/19 05:41:21;;;;;;;32.42;15.68;;;0.10;99.90;;;;;;5068217;28;20028;-80
2022/11/19 05:43:46;;;;;;;32.63;15.23;;;0.10;99.90;;;;;;5108927;28;20024;-80
2022/11/19 05:46:12;;;;;;;30.40;15.15;;;0.10;99.90;;;;;;5093107;28;20035;-80
2022/11/19 05:48:38;;;;;;;28.92;14.43;;;0.10;99.90;;;;;;5090495;28;20140;-80
2022/11/19 05:51:04;;;;;;;31.50;14.80;;;0.10;99.90;;;;;;5073985;28;20051;-80
2022/11/19 05:53:30;;;;;;;30.30;15.52;;;0.10;99.90;;;;;;5087490;28;20151;-80
2022/11/19 05:55:56;;;;;;;32.63;15.27;;;0.00;99.90;;;;;;5081636;28;20042;-80
2022/11/19 05:58:21;;;;;;;31.40;15.43;;;0.10;99.90;;;;;;5092497;28;20040;-80
2022/11/19 06:00:47;;;;;;;36.67;16.85;;;0.00;99.90;;;;;;5071629;28;20106;-79
2022/11/19 06:03:13;;;;;;;32.92;15.65;;;0.10;99.90;;;;;;5077934;28;20641;-79
2022/11/19 06:05:39;;;;;;;31.83;15.75;;;0.00;99.90;;;;;;5088422;28;20063;-80
2022/11/19 06:08:05;;;;;;;27.95;13.68;;;0.10;99.90;;;;;;5057095;28;20039;-79
2022/11/19 06:10:30;;;;;;;28.92;14.73;;;0.10;99.90;;;;;;5070389;28;20036;-80
2022/11/19 06:12:56;;;;;;;30.23;15.55;;;0.10;99.90;;;;;;5087241;28;20030;-80
2022/11/19 06:15:22;;;;;;;31.67;14.63;;;0.10;99.90;;;;;;5091155;28;20708;-79
2022/11/19 06:17:48;;;;;;;32.13;14.60;;;0.10;99.90;;;;;;5071447;28;20036;-78
2022/11/19 06:20:14;;;;;;;30.35;14.70;;;0.10;99.90;;;;;;5069754;28;20286;-78
2022/11/19 06:22:39;;;;;;;27.77;14.02;;;0.10;99.90;;;;;;5078649;28;20043;-79
2022/11/19 06:25:06;;;;;;;29.58;14.55;;;0.10;99.90;;;;;;5056043;28;20179;-78
2022/11/19 06:27:33;;;;;;;31.23;14.65;;;0.10;99.90;;;;;;5100636;28;20035;-78
2022/11/19 06:29:59;;;;;;;33.70;15.02;;;0.00;99.90;;;;;;5084135;28;20092;-78
2022/11/19 06:32:25;;;;;;;31.17;14.60;;;0.00;99.90;;;;;;5076740;28;20516;-78
2022/11/19 06:34:51;;;;;;;31.80;15.20;;;0.00;99.90;;;;;;5074897;28;20027;-78
2022/11/19 06:37:17;;;;;;;28.60;14.05;;;0.00;99.90;;;;;;5086957;28;20518;-78
2022/11/19 06:39:43;;;;;;;29.20;14.15;;;0.00;99.90;;;;;;5105264;28;20076;-78
2022/11/19 06:44:53;;;;;;;28.20;14.00;;;0.00;99.90;;;;;;5105179;28;20127;-78
2022/11/19 06:47:19;;;;;;;30.63;14.65;;;0.00;99.90;;;;;;5060208;28;20946;-78
2022/11/19 06:49:45;;;;;;;31.00;14.90;;;0.00;99.90;;;;;;5092787;28;20047;-79
2022/11/19 06:52:11;;;;;;;27.73;14.32;;;0.00;99.90;;;;;;5075443;28;20035;-80
2022/11/19 06:54:36;;;;;;;29.95;14.57;;;0.00;99.90;;;;;;5094405;28;20427;-81
2022/11/19 06:57:03;;;;;;;27.08;13.77;;;0.00;99.90;;;;;;5110781;28;20035;-81
2022/11/19 06:59:28;;;;;;;29.75;14.18;;;0.00;99.90;;;;;;5090635;28;20122;-79
2022/11/19 07:01:54;;;;;;;28.75;14.07;;;0.00;99.90;;;;;;5055191;28;20063;-79
2022/11/19 07:04:20;;;;;;;30.63;14.23;;;0.00;99.90;;;;;;5091109;28;20135;-79
2022/11/19 07:06:46;;;;;;;30.08;13.88;;;0.10;99.90;;;;;;5057579;28;20046;-79
2022/11/19 07:09:12;;;;;;;33.13;15.50;;;0.10;99.90;;;;;;5089297;28;20027;-80
2022/11/19 07:11:38;;;;;;;28.75;13.82;;;0.10;99.90;;;;;;5060730;28;20178;-79
2022/11/19 07:14:04;;;;;;;28.83;14.27;;;0.00;99.90;;;;;;5089489;28;20027;-79
2022/11/19 07:16:34;;;;;;;33.05;14.85;;;0.10;99.90;;;;;;5053603;28;20035;-79
2022/11/19 07:19:03;;;;;;;29.85;14.10;;;0.10;99.90;;;;;;5100011;28;20040;-79
2022/11/19 07:21:29;;;;;;;32.45;14.88;;;0.10;99.90;;;;;;5086421;28;20023;-79
2022/11/19 07:23:56;;;;;;;29.63;14.65;;;0.10;99.90;;;;;;5071394;28;20037;-81
2022/11/19 07:26:23;;;;;;;30.65;14.38;;;0.10;99.90;;;;;;5093366;28;20106;-79
2022/11/19 07:28:48;;;;;;;31.95;15.30;;;0.10;99.90;;;;;;5087618;28;20070;-79
2022/11/19 07:31:14;;;;;;;32.13;15.50;;;0.10;99.90;;;;;;5078183;28;20032;-79
2022/11/19 07:33:40;;;;;;;30.98;15.15;;;0.10;99.90;;;;;;5093147;28;20046;-79
2022/11/19 07:36:07;;;;;;;33.25;16.15;;;0.20;99.90;;;;;;5097116;28;20088;-81
2022/11/19 07:38:34;;;;;;;31.30;15.23;;;0.20;99.90;;;;;;5111507;28;20100;-80
2022/11/19 07:40:59;;;;;;;34.13;16.50;;;0.20;99.90;;;;;;5081258;28;20032;-78
2022/11/19 07:43:25;;;;;;;34.17;16.63;;;0.20;99.90;;;;;;5088903;28;20039;-77
2022/11/19 07:45:51;;;;;;;33.20;16.13;;;0.20;99.90;;;;;;5078123;28;20028;-78
2022/11/19 07:48:17;;;;;;;33.97;16.02;;;0.10;99.90;;;;;;5084728;28;20027;-79
2022/11/19 07:50:48;;;;;;;32.63;15.70;;;0.10;99.90;;;;;;5079965;28;20032;-79
2022/11/19 07:53:14;;;;;;;31.42;16.13;;;0.10;99.90;;;;;;5072235;28;20066;-79
2022/11/19 07:55:40;;;;;;;36.00;16.05;;;0.10;99.90;;;;;;5095362;28;20027;-78
2022/11/19 07:58:06;;;;;;;32.58;15.93;;;0.20;99.90;;;;;;5094545;28;20696;-77
2022/11/19 08:00:31;;;;;;;29.95;14.95;;;0.10;99.90;;;;;;5074642;28;20031;-77
2022/11/19 08:02:57;;;;;;;33.45;15.90;;;0.10;99.90;;;;;;5088728;28;20027;-78
2022/11/19 08:05:23;;;;;;;32.42;16.10;;;0.10;99.90;;;;;;5071612;28;20028;-77
2022/11/19 08:07:49;;;;;;;35.88;15.98;;;0.10;99.90;;;;;;5078892;28;20036;-79
2022/11/19 08:10:15;;;;;;;34.42;15.65;;;0.10;99.90;;;;;;5083886;27;20035;-79
2022/11/19 08:13:01;;;;;;;34.47;16.38;;;0.10;99.90;;;;;;5087126;28;21218;-79
2022/11/19 08:15:26;;;;;;;30.63;15.48;;;0.10;99.90;;;;;;5088160;28;20165;-79
2022/11/19 08:20:37;;;;;;;33.53;16.33;;;0.00;99.90;;;;;;5079240;28;20034;-79
2022/11/19 08:23:02;;;;;;;32.92;15.77;;;0.00;99.90;;;;;;5097397;28;20039;-79
2022/11/19 08:25:28;;;;;;;31.52;15.13;;;0.00;99.90;;;;;;5090179;28;20044;-80
2022/11/19 08:27:54;;;;;;;30.73;15.25;;;-0.10;99.90;;;;;;5074668;28;20036;-80
2022/11/19 08:30:20;;;;;;;28.88;14.77;;;-0.10;99.90;;;;;;5073740;28;20036;-80
2022/11/19 08:32:46;;;;;;;29.00;14.18;;;-0.10;99.90;;;;;;5098322;27;20119;-79
2022/11/19 08:35:12;;;;;;;29.98;14.48;;;-0.20;99.90;;;;;;5073587;28;20057;-79
2022/11/19 08:37:37;;;;;;;28.35;14.70;;;-0.40;99.90;;;;;;5099233;28;20043;-79
2022/11/19 08:40:03;;;;;;;28.30;15.07;;;-0.40;99.90;;;;;;5093372;28;20040;-79
2022/11/19 08:45:14;;;;;;;29.70;14.73;;;-0.20;99.90;;;;;;5100189;28;20036;-79
2022/11/19 08:47:39;;;;;;;25.27;14.05;;;-0.20;99.90;;;;;;5088719;28;20105;-80
2022/11/19 08:50:05;;;;;;;26.17;13.85;;;-0.30;99.90;;;;;;5077160;28;20039;-79
2022/11/19 08:52:31;;;;;;;26.70;14.55;;;-0.40;99.90;;;;;;5073294;28;20555;-80
2022/11/19 08:54:57;;;;;;;26.30;14.57;;;-0.40;99.90;;;;;;5068179;28;20028;-79
2022/11/19 08:57:22;;;;;;;27.63;14.35;;;-0.40;99.90;;;;;;5065079;28;20169;-79
2022/11/19 08:59:48;;;;;;;27.15;13.38;;;-0.40;99.90;;;;;;5094802;28;20092;-79
2022/11/19 09:02:14;;;;;;;27.35;14.20;;;-0.40;99.90;;;;;;5076259;28;20459;-80
2022/11/19 09:04:40;;;;;;;26.77;13.68;;;-0.50;99.90;;;;;;5070996;28;20035;-80
2022/11/19 09:07:06;;;;;;;25.90;13.57;;;-0.40;99.90;;;;;;5076935;28;20036;-79
2022/11/19 09:09:31;;;;;;;25.88;13.73;;;-0.40;99.90;;;;;;5091826;28;20484;-79
2022/11/19 09:11:57;;;;;;;24.45;13.18;;;-0.30;99.90;;;;;;5108884;27;20066;-80
2022/11/19 09:14:23;;;;;;;22.80;12.77;;;-0.40;99.90;;;;;;5085663;28;20035;-79
2022/11/19 09:16:49;;;;;;;22.70;12.63;;;-0.40;99.90;;;;;;5101153;28;20051;-79
2022/11/19 09:19:14;;;;;;;24.98;13.07;;;-0.30;99.90;;;;;;5087957;28;20507;-80
2022/11/19 09:21:40;;;;;;;26.00;13.82;;;-0.30;99.90;;;;;;5103851;27;20035;-79
2022/11/19 09:24:06;;;;;;;26.70;14.80;;;-0.30;99.90;;;;;;5091593;28;20030;-80
2022/11/19 09:26:32;;;;;;;26.40;13.65;;;-0.30;99.90;;;;;;5075601;28;20633;-80
2022/11/19 09:28:57;;;;;;;25.42;13.38;;;-0.20;99.90;;;;;;5073438;28;20047;-80
2022/11/19 09:31:23;;;;;;;24.85;12.75;;;-0.30;99.90;;;;;;5073557;28;20040;-79
2022/11/19 09:33:51;;;;;;;23.58;13.55;;;-0.30;99.90;;;;;;5090739;28;20127;-80
2022/11/19 09:36:18;;;;;;;27.52;13.93;;;-0.40;99.90;;;;;;5104056;28;20630;-79
2022/11/19 09:38:44;;;;;;;25.02;13.63;;;-0.40;99.90;;;;;;5093037;28;20032;-79
2022/11/19 09:41:16;;;;;;;25.70;13.95;;;-0.40;99.90;;;;;;5083790;28;20088;-80
2022/11/19 09:44:20;;;;;;;25.38;13.23;;;-0.30;99.90;;;;;;5103348;28;20020;-80
2022/11/19 09:47:18;;;;;;;25.48;13.45;;;-0.30;99.90;;;;;;5104313;28;20028;-79
2022/11/19 09:50:12;;;;;;;26.20;13.25;;;-0.20;99.90;;;;;;5087943;28;20040;-80
2022/11/19 09:52:46;;;;;;;25.10;13.40;;;-0.30;99.90;;;;;;5075152;28;20047;-80
2022/11/19 09:55:36;;;;;;;27.97;13.63;;;-0.30;99.90;;;;;;5092643;28;20032;-79
2022/11/19 09:58:06;;;;;;;23.17;13.23;;;-0.30;99.90;;;;;;5074035;28;20152;-79
2022/11/19 10:00:32;;;;;;;26.60;13.55;;;-0.40;99.90;;;;;;5063994;28;20043;-79
2022/11/19 10:03:01;;;;;;;25.55;13.18;;;-0.30;99.90;;;;;;5092718;28;20040;-80
2022/11/19 10:05:41;;;;;;;26.67;12.77;;;-0.40;99.90;;;;;;5109260;28;20027;-80
2022/11/19 10:08:15;;;;;;;26.58;13.32;;;-0.40;99.90;;;;;;5107024;28;20027;-80
2022/11/19 10:11:24;;;;;;;25.02;13.20;;;-0.40;99.90;;;;;;5092739;28;20027;-79
2022/11/19 10:14:12;;;;;;;24.63;13.05;;;-0.50;99.90;;;;;;5079064;28;20023;-82
2022/11/19 10:17:03;;;;;;;28.08;14.70;;;-0.50;99.90;;;;;;5069228;28;20054;-79
2022/11/19 10:20:09;;;;;;;24.73;12.52;;;-0.60;99.90;;;;;;5125119;27;20106;-80
2022/11/19 10:22:41;;;;;;;24.08;12.60;;;-0.60;99.90;;;;;;5076623;28;20049;-79
2022/11/19 10:25:14;;;;;;;20.13;11.88;;;-0.60;99.90;;;;;;5083788;28;20558;-80
2022/11/19 10:27:50;;;;;;;25.17;12.00;;;-0.60;99.90;;;;;;5098764;27;20457;-80
2022/11/19 10:30:20;;;;;;;26.70;13.73;;;-0.60;99.90;;;;;;5091639;28;20039;-80
2022/11/19 10:32:56;;;;;;;23.25;11.65;;;-0.50;99.90;;;;;;5092304;28;20488;-80
2022/11/19 10:35:30;;;;;;;21.00;12.13;;;-0.50;99.90;;;;;;5094422;28;20087;-80
2022/11/19 10:38:03;;;;;;;22.30;11.95;;;-0.40;99.90;;;;;;5067692;28;20032;-80
2022/11/19 10:40:45;;;;;;;22.23;12.60;;;-0.30;99.90;;;;;;5071781;28;20040;-80
2022/11/19 10:43:25;;;;;;;26.48;12.10;;;-0.40;99.90;;;;;;5092301;28;20544;-80
2022/11/19 10:45:52;;;;;;;21.52;10.98;;;-0.40;99.90;;;;;;5092264;28;20027;-80
2022/11/19 10:48:23;;;;;;;23.20;11.43;;;-0.40;99.90;;;;;;5088093;28;20032;-80
2022/11/19 10:50:50;;;;;;;23.05;11.75;;;-0.40;99.90;;;;;;5082394;28;20020;-80
2022/11/19 10:53:31;;;;;;;24.02;12.27;;;-0.40;99.90;;;;;;5090708;28;20081;-79
2022/11/19 10:56:00;;;;;;;20.60;11.35;;;-0.40;99.90;;;;;;5109971;28;20403;-81
2022/11/19 10:58:35;;;;;;;20.92;11.45;;;-0.40;99.90;;;;;;5076161;28;20023;-80
2022/11/19 11:01:04;;;;;;;20.70;11.70;;;-0.40;99.90;;;;;;5090133;28;20511;-80
2022/11/19 11:03:40;;;;;;;22.05;11.27;;;-0.40;99.90;;;;;;5093774;28;20038;-78
2022/11/19 11:06:08;;;;;;;22.40;11.30;;;-0.30;99.90;;;;;;5107635;28;20133;-80
2022/11/19 11:08:55;;;;;;;23.10;11.55;;;-0.30;99.90;;;;;;5064884;28;20039;-79
2022/11/19 11:17:03;;;;;;;22.00;11.38;;;-0.20;99.90;;;;;;5100880;28;20503;-78
2022/11/19 11:19:30;;;;;;;23.08;11.73;;;-0.10;99.90;;;;;;5070397;28;20035;-79
2022/11/19 11:21:57;;;;;;;22.25;11.60;;;-0.10;99.90;;;;;;5093204;28;20020;-80
2022/11/19 11:24:35;;;;;;;23.23;11.18;;;-0.10;99.90;;;;;;5081348;28;20035;-78
2022/11/19 11:27:32;;;;;;;21.23;11.57;;;-0.10;99.90;;;;;;5058542;28;20047;-80
2022/11/19 11:30:16;;;;;;;21.05;11.27;;;-0.10;99.90;;;;;;5107530;28;20097;-80
2022/11/19 11:32:42;;;;;;;21.17;11.48;;;0.00;99.90;;;;;;5085354;28;20023;-79
2022/11/19 11:35:31;;;;;;;24.98;12.65;;;-0.10;99.90;;;;;;5074541;28;20525;-79
2022/11/19 11:37:59;;;;;;;21.65;11.35;;;-0.10;99.90;;;;;;5082626;28;20069;-80
2022/11/19 11:40:24;;;;;;;21.33;12.18;;;-0.10;99.90;;;;;;5108232;28;20042;-79
2022/11/19 11:42:52;;;;;;;22.35;11.55;;;0.00;99.90;;;;;;5101994;28;20173;-79
2022/11/19 11:45:31;;;;;;;24.70;12.80;;;0.00;99.90;;;;;;5086100;28;20554;-79
2022/11/19 11:48:04;;;;;;;23.08;11.43;;;0.00;99.90;;;;;;5094147;27;20114;-80
2022/11/19 11:50:30;;;;;;;23.50;12.70;;;0.00;99.90;;;;;;5084628;28;20035;-80
2022/11/19 11:52:56;;;;;;;26.88;13.30;;;-0.10;99.90;;;;;;5069663;28;20032;-79
2022/11/19 11:55:22;;;;;;;25.30;12.50;;;-0.10;99.90;;;;;;5105501;28;20087;-80
2022/11/19 11:57:57;;;;;;;22.73;12.10;;;-0.10;99.90;;;;;;5077691;28;20119;-80
2022/11/19 12:00:41;;;;;;;23.75;11.77;;;-0.30;99.90;;;;;;5107132;27;20112;-79
2022/11/19 12:03:19;;;;;;;24.23;11.93;;;-0.40;99.90;;;;;;5090835;28;20074;-79
2022/11/19 12:06:01;;;;;;;23.55;12.40;;;-0.40;99.90;;;;;;5094962;28;20395;-80
2022/11/19 12:08:49;;;;;;;26.60;12.40;;;-0.40;99.90;;;;;;5097084;28;20067;-80
2022/11/19 12:11:15;;;;;;;25.38;13.15;;;-0.40;99.90;;;;;;5106671;28;20012;-80
2022/11/19 12:13:54;;;;;;;23.05;12.50;;;-0.50;99.90;;;;;;5089597;28;20027;-79
2022/11/19 12:16:37;;;;;;;27.38;12.60;;;-0.60;99.90;;;;;;5104309;28;20157;-80
2022/11/19 12:19:20;;;;;;;25.52;12.45;;;-0.60;99.90;;;;;;5082818;28;20032;-80
2022/11/19 12:21:52;;;;;;;26.08;12.40;;;-0.60;99.90;;;;;;5114324;27;20045;-79
2022/11/19 12:24:57;;;;;;;24.98;13.60;;;-0.50;99.90;;;;;;5089784;27;20057;-80
2022/11/19 12:27:31;;;;;;;27.20;13.90;;;-0.60;99.90;;;;;;5092877;28;20042;-80
2022/11/19 12:30:18;;;;;;;23.80;12.48;;;-0.60;99.90;;;;;;5073169;28;20038;-79
2022/11/19 12:33:02;;;;;;;23.65;12.48;;;-0.60;99.90;;;;;;5064073;28;20484;-80
2022/11/19 12:35:43;;;;;;;28.73;13.40;;;-0.60;99.90;;;;;;5108467;28;20028;-80
2022/11/19 12:38:34;;;;;;;27.17;13.52;;;-0.60;99.90;;;;;;5082384;28;20261;-80
2022/11/19 12:41:19;;;;;;;28.70;13.75;;;-0.60;99.90;;;;;;5082869;28;20040;-80
2022/11/19 12:44:09;;;;;;;25.77;12.32;;;-0.60;99.90;;;;;;5095355;28;20063;-79
2022/11/19 12:46:41;;;;;;;24.40;12.52;;;-0.60;99.90;;;;;;5109541;28;20028;-80
2022/11/19 12:49:31;;;;;;;26.33;13.55;;;-0.60;99.90;;;;;;5092737;28;20551;-79
2022/11/19 12:52:21;;;;;;;26.80;13.38;;;-0.50;99.90;;;;;;5078896;28;20544;-80
2022/11/19 12:55:15;;;;;;;26.33;13.52;;;-0.50;99.90;;;;;;5086959;28;20032;-80
2022/11/19 12:57:54;;;;;;;26.30;12.77;;;-0.50;99.90;;;;;;5081185;28;20175;-80
2022/11/19 13:00:23;;;;;;;23.02;13.20;;;-0.50;99.90;;;;;;5078744;28;20084;-80
2022/11/19 13:03:07;;;;;;;28.98;13.27;;;-0.40;99.90;;;;;;5089641;28;20031;-80
2022/11/19 13:05:40;;;;;;;24.43;12.23;;;-0.40;99.90;;;;;;5102076;28;20023;-79
2022/11/19 13:08:25;;;;;;;25.38;12.57;;;-0.40;99.90;;;;;;5092403;28;20726;-80
2022/11/19 13:10:57;;;;;;;22.58;11.88;;;-0.50;99.90;;;;;;5093056;28;20027;-79
2022/11/19 13:13:28;;;;;;;25.38;12.70;;;-0.40;99.90;;;;;;5093543;28;20495;-79
2022/11/19 13:16:19;;;;;;;26.88;14.35;;;-0.40;99.90;;;;;;5111668;28;20038;-79
2022/11/19 13:18:58;;;;;;;22.15;12.18;;;-0.50;99.90;;;;;;5066054;28;20519;-80
2022/11/19 13:21:40;;;;;;;26.33;12.43;;;-0.40;99.90;;;;;;5090628;28;20039;-79
2022/11/19 13:24:28;;;;;;;24.50;12.85;;;-0.50;99.90;;;;;;5087756;28;20034;-79